sensor_id;sensor_type;location;lat;lon;timestamp;P1;durP1;ratioP1;P2;durP2;ratioP2
65613;SDS011;52283;49.292;10.572;2023-05-16T00:00:45;10.57;;;6.75;;
65613;SDS011;52283;49.292;10.572;2023-05-16T00:03:12;14.25;;;7.22;;
65613;SDS011;52283;49.292;10.572;2023-05-16T00:05:39;9.98;;;7.43;;
65613;SDS011;52283;49.292;10.572;2023-05-16T00:08:07;10.25;;;8.18;;
65613;SDS011;52283;49.292;10.572;2023-05-16T00:10:33;8.98;;;7.18;;
65613;SDS011;52283;49.292;10.572;2023-05-16T00:13:00;10.50;;;7.85;;
65613;SDS011;52283;49.292;10.572;2023-05-16T00:15:27;9.63;;;7.05;;
65613;SDS011;52283;49.292;10.572;2023-05-16T00:17:54;18.77;;;7.63;;
65613;SDS011;52283;49.292;10.572;2023-05-16T00:20:22;10.38;;;6.97;;
65613;SDS011;52283;49.292;10.572;2023-05-16T00:22:49;11.40;;;8.25;;
65613;SDS011;52283;49.292;10.572;2023-05-16T00:25:17;10.85;;;8.35;;
65613;SDS011;52283;49.292;10.572;2023-05-16T00:27:43;12.15;;;7.88;;
65613;SDS011;52283;49.292;10.572;2023-05-16T00:30:10;10.27;;;8.13;;
65613;SDS011;52283;49.292;10.572;2023-05-16T00:32:37;10.48;;;8.02;;
65613;SDS011;52283;49.292;10.572;2023-05-16T00:35:04;12.38;;;8.65;;
65613;SDS011;52283;49.292;10.572;2023-05-16T00:37:34;12.05;;;8.18;;
65613;SDS011;52283;49.292;10.572;2023-05-16T00:40:01;9.98;;;8.20;;
65613;SDS011;52283;49.292;10.572;2023-05-16T00:42:30;13.20;;;8.32;;
65613;SDS011;52283;49.292;10.572;2023-05-16T00:44:56;12.18;;;7.80;;
65613;SDS011;52283;49.292;10.572;2023-05-16T00:47:23;12.45;;;7.90;;
65613;SDS011;52283;49.292;10.572;2023-05-16T00:49:49;11.43;;;9.15;;
65613;SDS011;52283;49.292;10.572;2023-05-16T00:52:15;13.38;;;9.60;;
65613;SDS011;52283;49.292;10.572;2023-05-16T00:54:42;11.60;;;8.73;;
65613;SDS011;52283;49.292;10.572;2023-05-16T00:57:09;14.13;;;8.32;;
65613;SDS011;52283;49.292;10.572;2023-05-16T00:59:37;12.60;;;9.13;;
65613;SDS011;52283;49.292;10.572;2023-05-16T01:02:04;14.32;;;9.23;;
65613;SDS011;52283;49.292;10.572;2023-05-16T01:04:30;13.50;;;8.77;;
65613;SDS011;52283;49.292;10.572;2023-05-16T01:06:57;11.52;;;8.35;;
65613;SDS011;52283;49.292;10.572;2023-05-16T01:09:24;11.70;;;7.60;;
65613;SDS011;52283;49.292;10.572;2023-05-16T01:11:51;13.30;;;8.60;;
65613;SDS011;52283;49.292;10.572;2023-05-16T01:14:23;15.02;;;9.07;;
65613;SDS011;52283;49.292;10.572;2023-05-16T01:16:58;10.65;;;8.70;;
65613;SDS011;52283;49.292;10.572;2023-05-16T01:19:36;10.60;;;8.50;;
65613;SDS011;52283;49.292;10.572;2023-05-16T01:22:15;13.32;;;9.57;;
65613;SDS011;52283;49.292;10.572;2023-05-16T01:24:48;13.82;;;10.13;;
65613;SDS011;52283;49.292;10.572;2023-05-16T01:27:29;14.52;;;10.40;;
65613;SDS011;52283;49.292;10.572;2023-05-16T01:29:56;13.73;;;9.85;;
65613;SDS011;52283;49.292;10.572;2023-05-16T01:32:23;13.50;;;9.07;;
65613;SDS011;52283;49.292;10.572;2023-05-16T01:34:49;14.95;;;10.05;;
65613;SDS011;52283;49.292;10.572;2023-05-16T01:37:18;11.77;;;8.25;;
65613;SDS011;52283;49.292;10.572;2023-05-16T01:39:51;12.25;;;8.05;;
65613;SDS011;52283;49.292;10.572;2023-05-16T01:42:22;11.80;;;8.80;;
65613;SDS011;52283;49.292;10.572;2023-05-16T01:44:54;14.30;;;9.40;;
65613;SDS011;52283;49.292;10.572;2023-05-16T01:47:26;13.75;;;8.90;;
65613;SDS011;52283;49.292;10.572;2023-05-16T01:49:56;17.35;;;9.40;;
65613;SDS011;52283;49.292;10.572;2023-05-16T01:52:30;12.20;;;8.93;;
65613;SDS011;52283;49.292;10.572;2023-05-16T01:55:01;13.05;;;9.20;;
65613;SDS011;52283;49.292;10.572;2023-05-16T01:57:29;12.10;;;8.70;;
65613;SDS011;52283;49.292;10.572;2023-05-16T01:59:57;13.20;;;8.85;;
65613;SDS011;52283;49.292;10.572;2023-05-16T02:02:23;10.77;;;8.85;;
65613;SDS011;52283;49.292;10.572;2023-05-16T02:04:50;16.08;;;9.48;;
65613;SDS011;52283;49.292;10.572;2023-05-16T02:07:16;12.30;;;9.77;;
65613;SDS011;52283;49.292;10.572;2023-05-16T02:09:43;10.98;;;8.73;;
65613;SDS011;52283;49.292;10.572;2023-05-16T02:12:10;12.07;;;7.95;;
65613;SDS011;52283;49.292;10.572;2023-05-16T02:14:36;12.45;;;9.05;;
65613;SDS011;52283;49.292;10.572;2023-05-16T02:17:04;12.02;;;8.90;;
65613;SDS011;52283;49.292;10.572;2023-05-16T02:19:31;12.80;;;9.27;;
65613;SDS011;52283;49.292;10.572;2023-05-16T02:21:57;11.73;;;8.90;;
65613;SDS011;52283;49.292;10.572;2023-05-16T02:24:23;12.50;;;8.73;;
65613;SDS011;52283;49.292;10.572;2023-05-16T02:26:50;14.70;;;9.55;;
65613;SDS011;52283;49.292;10.572;2023-05-16T02:29:17;13.32;;;8.52;;
65613;SDS011;52283;49.292;10.572;2023-05-16T02:31:43;14.10;;;9.57;;
65613;SDS011;52283;49.292;10.572;2023-05-16T02:34:11;13.30;;;8.73;;
65613;SDS011;52283;49.292;10.572;2023-05-16T02:36:38;14.15;;;10.23;;
65613;SDS011;52283;49.292;10.572;2023-05-16T02:39:04;10.10;;;8.32;;
65613;SDS011;52283;49.292;10.572;2023-05-16T02:41:32;12.23;;;9.10;;
65613;SDS011;52283;49.292;10.572;2023-05-16T02:43:59;13.27;;;9.27;;
65613;SDS011;52283;49.292;10.572;2023-05-16T02:46:25;11.55;;;9.02;;
65613;SDS011;52283;49.292;10.572;2023-05-16T02:48:54;11.15;;;8.48;;
65613;SDS011;52283;49.292;10.572;2023-05-16T02:51:23;13.73;;;9.18;;
65613;SDS011;52283;49.292;10.572;2023-05-16T02:53:50;15.40;;;10.75;;
65613;SDS011;52283;49.292;10.572;2023-05-16T02:56:18;15.70;;;9.38;;
65613;SDS011;52283;49.292;10.572;2023-05-16T02:58:46;13.30;;;9.50;;
65613;SDS011;52283;49.292;10.572;2023-05-16T03:01:13;14.07;;;9.10;;
65613;SDS011;52283;49.292;10.572;2023-05-16T03:03:41;12.05;;;8.98;;
65613;SDS011;52283;49.292;10.572;2023-05-16T03:06:07;13.82;;;9.20;;
65613;SDS011;52283;49.292;10.572;2023-05-16T03:08:35;12.82;;;9.52;;
65613;SDS011;52283;49.292;10.572;2023-05-16T03:11:01;12.48;;;9.13;;
65613;SDS011;52283;49.292;10.572;2023-05-16T03:13:28;15.07;;;10.70;;
65613;SDS011;52283;49.292;10.572;2023-05-16T03:15:55;12.88;;;9.52;;
65613;SDS011;52283;49.292;10.572;2023-05-16T03:18:21;13.00;;;10.02;;
65613;SDS011;52283;49.292;10.572;2023-05-16T03:20:48;14.32;;;9.77;;
65613;SDS011;52283;49.292;10.572;2023-05-16T03:23:16;12.77;;;8.90;;
65613;SDS011;52283;49.292;10.572;2023-05-16T03:25:44;13.38;;;9.98;;
65613;SDS011;52283;49.292;10.572;2023-05-16T03:28:11;12.13;;;9.30;;
65613;SDS011;52283;49.292;10.572;2023-05-16T03:30:37;12.65;;;9.77;;
65613;SDS011;52283;49.292;10.572;2023-05-16T03:33:04;10.05;;;7.95;;
65613;SDS011;52283;49.292;10.572;2023-05-16T03:35:30;12.30;;;9.45;;
65613;SDS011;52283;49.292;10.572;2023-05-16T03:37:57;11.70;;;9.52;;
65613;SDS011;52283;49.292;10.572;2023-05-16T03:40:24;13.05;;;9.02;;
65613;SDS011;52283;49.292;10.572;2023-05-16T03:42:52;9.43;;;8.05;;
65613;SDS011;52283;49.292;10.572;2023-05-16T03:45:18;11.13;;;8.32;;
65613;SDS011;52283;49.292;10.572;2023-05-16T03:47:45;12.05;;;9.18;;
65613;SDS011;52283;49.292;10.572;2023-05-16T03:50:13;13.63;;;9.82;;
65613;SDS011;52283;49.292;10.572;2023-05-16T03:52:40;11.70;;;9.20;;
65613;SDS011;52283;49.292;10.572;2023-05-16T03:55:07;14.30;;;9.35;;
65613;SDS011;52283;49.292;10.572;2023-05-16T03:57:34;14.15;;;9.32;;
65613;SDS011;52283;49.292;10.572;2023-05-16T04:00:04;12.38;;;8.82;;
65613;SDS011;52283;49.292;10.572;2023-05-16T04:02:32;11.98;;;9.38;;
65613;SDS011;52283;49.292;10.572;2023-05-16T04:04:58;11.35;;;8.73;;
65613;SDS011;52283;49.292;10.572;2023-05-16T04:07:25;13.63;;;10.05;;
65613;SDS011;52283;49.292;10.572;2023-05-16T04:09:53;11.23;;;8.68;;
65613;SDS011;52283;49.292;10.572;2023-05-16T04:12:19;13.82;;;10.25;;
65613;SDS011;52283;49.292;10.572;2023-05-16T04:14:47;14.23;;;9.88;;
65613;SDS011;52283;49.292;10.572;2023-05-16T04:17:14;21.35;;;11.10;;
65613;SDS011;52283;49.292;10.572;2023-05-16T04:19:41;15.25;;;10.02;;
65613;SDS011;52283;49.292;10.572;2023-05-16T04:22:07;17.95;;;9.55;;
65613;SDS011;52283;49.292;10.572;2023-05-16T04:24:34;13.07;;;10.27;;
65613;SDS011;52283;49.292;10.572;2023-05-16T04:27:00;12.60;;;9.23;;
65613;SDS011;52283;49.292;10.572;2023-05-16T04:29:27;14.10;;;9.80;;
65613;SDS011;52283;49.292;10.572;2023-05-16T04:31:53;14.38;;;9.80;;
65613;SDS011;52283;49.292;10.572;2023-05-16T04:34:21;14.43;;;10.57;;
65613;SDS011;52283;49.292;10.572;2023-05-16T04:36:51;13.35;;;9.40;;
65613;SDS011;52283;49.292;10.572;2023-05-16T04:39:18;15.00;;;10.32;;
65613;SDS011;52283;49.292;10.572;2023-05-16T04:41:44;12.85;;;10.52;;
65613;SDS011;52283;49.292;10.572;2023-05-16T04:44:11;14.65;;;10.20;;
65613;SDS011;52283;49.292;10.572;2023-05-16T04:46:38;15.90;;;9.55;;
65613;SDS011;52283;49.292;10.572;2023-05-16T04:49:05;12.63;;;9.70;;
65613;SDS011;52283;49.292;10.572;2023-05-16T04:51:33;16.92;;;11.63;;
65613;SDS011;52283;49.292;10.572;2023-05-16T04:54:00;14.55;;;10.90;;
65613;SDS011;52283;49.292;10.572;2023-05-16T04:56:26;14.32;;;10.15;;
65613;SDS011;52283;49.292;10.572;2023-05-16T04:58:52;18.05;;;11.38;;
65613;SDS011;52283;49.292;10.572;2023-05-16T05:01:19;17.20;;;10.95;;
65613;SDS011;52283;49.292;10.572;2023-05-16T05:03:45;16.85;;;11.00;;
65613;SDS011;52283;49.292;10.572;2023-05-16T05:06:12;15.85;;;11.75;;
65613;SDS011;52283;49.292;10.572;2023-05-16T05:08:40;17.88;;;11.38;;
65613;SDS011;52283;49.292;10.572;2023-05-16T05:11:06;17.00;;;11.07;;
65613;SDS011;52283;49.292;10.572;2023-05-16T05:13:33;18.08;;;11.82;;
65613;SDS011;52283;49.292;10.572;2023-05-16T05:15:59;17.40;;;12.02;;
65613;SDS011;52283;49.292;10.572;2023-05-16T05:18:28;15.90;;;11.60;;
65613;SDS011;52283;49.292;10.572;2023-05-16T05:20:55;14.77;;;10.95;;
65613;SDS011;52283;49.292;10.572;2023-05-16T05:23:22;17.88;;;11.88;;
65613;SDS011;52283;49.292;10.572;2023-05-16T05:25:50;16.52;;;11.65;;
65613;SDS011;52283;49.292;10.572;2023-05-16T05:28:16;17.98;;;12.43;;
65613;SDS011;52283;49.292;10.572;2023-05-16T05:30:43;18.33;;;12.00;;
65613;SDS011;52283;49.292;10.572;2023-05-16T05:33:09;17.25;;;11.60;;
65613;SDS011;52283;49.292;10.572;2023-05-16T05:35:36;19.58;;;12.73;;
65613;SDS011;52283;49.292;10.572;2023-05-16T05:38:03;18.77;;;12.48;;
65613;SDS011;52283;49.292;10.572;2023-05-16T05:40:30;20.17;;;10.57;;
65613;SDS011;52283;49.292;10.572;2023-05-16T05:42:57;15.25;;;11.50;;
65613;SDS011;52283;49.292;10.572;2023-05-16T05:45:24;17.63;;;12.60;;
65613;SDS011;52283;49.292;10.572;2023-05-16T05:47:50;16.83;;;11.10;;
65613;SDS011;52283;49.292;10.572;2023-05-16T05:50:17;19.13;;;12.23;;
65613;SDS011;52283;49.292;10.572;2023-05-16T05:52:43;16.15;;;11.65;;
65613;SDS011;52283;49.292;10.572;2023-05-16T05:55:10;17.30;;;11.88;;
65613;SDS011;52283;49.292;10.572;2023-05-16T05:57:37;18.25;;;11.23;;
65613;SDS011;52283;49.292;10.572;2023-05-16T06:00:06;20.02;;;12.65;;
65613;SDS011;52283;49.292;10.572;2023-05-16T06:02:33;17.60;;;11.90;;
65613;SDS011;52283;49.292;10.572;2023-05-16T06:05:00;14.73;;;10.93;;
65613;SDS011;52283;49.292;10.572;2023-05-16T06:07:27;17.98;;;11.82;;
65613;SDS011;52283;49.292;10.572;2023-05-16T06:09:53;16.88;;;11.63;;
65613;SDS011;52283;49.292;10.572;2023-05-16T06:12:20;19.38;;;12.30;;
65613;SDS011;52283;49.292;10.572;2023-05-16T06:14:46;15.43;;;10.65;;
65613;SDS011;52283;49.292;10.572;2023-05-16T06:17:14;15.32;;;12.40;;
65613;SDS011;52283;49.292;10.572;2023-05-16T06:19:41;15.30;;;11.68;;
65613;SDS011;52283;49.292;10.572;2023-05-16T06:22:07;20.10;;;11.18;;
65613;SDS011;52283;49.292;10.572;2023-05-16T06:24:34;15.30;;;10.88;;
65613;SDS011;52283;49.292;10.572;2023-05-16T06:27:00;15.68;;;10.80;;
65613;SDS011;52283;49.292;10.572;2023-05-16T06:29:27;13.00;;;9.93;;
65613;SDS011;52283;49.292;10.572;2023-05-16T06:31:53;15.68;;;10.07;;
65613;SDS011;52283;49.292;10.572;2023-05-16T06:34:21;14.57;;;10.25;;
65613;SDS011;52283;49.292;10.572;2023-05-16T06:36:52;12.95;;;10.35;;
65613;SDS011;52283;49.292;10.572;2023-05-16T06:39:18;13.73;;;10.45;;
65613;SDS011;52283;49.292;10.572;2023-05-16T06:41:45;12.20;;;9.50;;
65613;SDS011;52283;49.292;10.572;2023-05-16T06:44:11;17.08;;;10.73;;
65613;SDS011;52283;49.292;10.572;2023-05-16T06:46:38;15.02;;;9.80;;
65613;SDS011;52283;49.292;10.572;2023-05-16T06:49:05;15.30;;;10.25;;
65613;SDS011;52283;49.292;10.572;2023-05-16T06:51:33;13.10;;;10.00;;
65613;SDS011;52283;49.292;10.572;2023-05-16T06:53:59;13.73;;;10.27;;
65613;SDS011;52283;49.292;10.572;2023-05-16T06:56:26;14.15;;;10.88;;
65613;SDS011;52283;49.292;10.572;2023-05-16T06:58:55;14.65;;;10.75;;
65613;SDS011;52283;49.292;10.572;2023-05-16T07:01:22;12.68;;;10.13;;
65613;SDS011;52283;49.292;10.572;2023-05-16T07:03:48;16.05;;;9.75;;
65613;SDS011;52283;49.292;10.572;2023-05-16T07:06:15;14.98;;;10.57;;
65613;SDS011;52283;49.292;10.572;2023-05-16T07:08:42;12.63;;;8.98;;
65613;SDS011;52283;49.292;10.572;2023-05-16T07:11:09;12.00;;;9.82;;
65613;SDS011;52283;49.292;10.572;2023-05-16T07:13:36;11.02;;;9.05;;
65613;SDS011;52283;49.292;10.572;2023-05-16T07:16:03;12.10;;;9.18;;
65613;SDS011;52283;49.292;10.572;2023-05-16T07:18:31;13.50;;;10.07;;
65613;SDS011;52283;49.292;10.572;2023-05-16T07:20:58;10.80;;;8.45;;
65613;SDS011;52283;49.292;10.572;2023-05-16T07:23:24;10.52;;;9.05;;
65613;SDS011;52283;49.292;10.572;2023-05-16T07:25:52;15.00;;;10.35;;
65613;SDS011;52283;49.292;10.572;2023-05-16T07:28:19;14.45;;;9.77;;
65613;SDS011;52283;49.292;10.572;2023-05-16T07:30:46;15.45;;;8.90;;
65613;SDS011;52283;49.292;10.572;2023-05-16T07:33:12;10.63;;;8.38;;
65613;SDS011;52283;49.292;10.572;2023-05-16T07:35:39;13.27;;;8.45;;
65613;SDS011;52283;49.292;10.572;2023-05-16T07:38:06;10.18;;;8.95;;
65613;SDS011;52283;49.292;10.572;2023-05-16T07:40:32;13.55;;;9.30;;
65613;SDS011;52283;49.292;10.572;2023-05-16T07:43:00;13.00;;;8.88;;
65613;SDS011;52283;49.292;10.572;2023-05-16T07:45:27;11.40;;;9.15;;
65613;SDS011;52283;49.292;10.572;2023-05-16T07:47:54;14.15;;;9.15;;
65613;SDS011;52283;49.292;10.572;2023-05-16T07:50:20;10.70;;;9.45;;
65613;SDS011;52283;49.292;10.572;2023-05-16T07:52:47;13.10;;;10.45;;
65613;SDS011;52283;49.292;10.572;2023-05-16T07:55:14;12.43;;;9.65;;
65613;SDS011;52283;49.292;10.572;2023-05-16T07:57:40;13.18;;;9.55;;
65613;SDS011;52283;49.292;10.572;2023-05-16T08:00:09;14.75;;;9.23;;
65613;SDS011;52283;49.292;10.572;2023-05-16T08:02:37;12.30;;;10.20;;
65613;SDS011;52283;49.292;10.572;2023-05-16T08:05:04;16.73;;;11.15;;
65613;SDS011;52283;49.292;10.572;2023-05-16T08:07:31;13.57;;;10.10;;
65613;SDS011;52283;49.292;10.572;2023-05-16T08:09:58;15.07;;;9.93;;
65613;SDS011;52283;49.292;10.572;2023-05-16T08:12:24;12.25;;;10.00;;
65613;SDS011;52283;49.292;10.572;2023-05-16T08:14:52;14.98;;;11.35;;
65613;SDS011;52283;49.292;10.572;2023-05-16T08:17:19;13.82;;;10.35;;
65613;SDS011;52283;49.292;10.572;2023-05-16T08:19:46;17.23;;;10.40;;
65613;SDS011;52283;49.292;10.572;2023-05-16T08:22:13;15.32;;;10.32;;
65613;SDS011;52283;49.292;10.572;2023-05-16T08:24:40;12.90;;;9.93;;
65613;SDS011;52283;49.292;10.572;2023-05-16T08:27:06;12.38;;;10.38;;
65613;SDS011;52283;49.292;10.572;2023-05-16T08:29:33;17.42;;;11.55;;
65613;SDS011;52283;49.292;10.572;2023-05-16T08:32:00;14.52;;;11.63;;
65613;SDS011;52283;49.292;10.572;2023-05-16T08:34:29;17.70;;;12.10;;
65613;SDS011;52283;49.292;10.572;2023-05-16T08:36:55;17.48;;;12.68;;
65613;SDS011;52283;49.292;10.572;2023-05-16T08:39:22;16.60;;;11.98;;
65613;SDS011;52283;49.292;10.572;2023-05-16T08:41:49;18.27;;;11.75;;
65613;SDS011;52283;49.292;10.572;2023-05-16T08:44:15;18.90;;;12.65;;
65613;SDS011;52283;49.292;10.572;2023-05-16T08:46:47;18.80;;;12.20;;
65613;SDS011;52283;49.292;10.572;2023-05-16T08:49:16;17.65;;;12.55;;
65613;SDS011;52283;49.292;10.572;2023-05-16T08:51:46;14.95;;;11.90;;
65613;SDS011;52283;49.292;10.572;2023-05-16T08:54:13;15.15;;;11.48;;
65613;SDS011;52283;49.292;10.572;2023-05-16T08:56:43;18.40;;;10.52;;
65613;SDS011;52283;49.292;10.572;2023-05-16T08:59:10;14.85;;;11.10;;
65613;SDS011;52283;49.292;10.572;2023-05-16T09:01:37;11.40;;;9.80;;
65613;SDS011;52283;49.292;10.572;2023-05-16T09:04:07;12.68;;;9.93;;
65613;SDS011;52283;49.292;10.572;2023-05-16T09:06:34;16.47;;;10.43;;
65613;SDS011;52283;49.292;10.572;2023-05-16T09:09:02;15.57;;;10.43;;
65613;SDS011;52283;49.292;10.572;2023-05-16T09:11:32;14.88;;;10.77;;
65613;SDS011;52283;49.292;10.572;2023-05-16T09:13:58;15.32;;;10.70;;
65613;SDS011;52283;49.292;10.572;2023-05-16T09:16:25;18.05;;;11.05;;
65613;SDS011;52283;49.292;10.572;2023-05-16T09:18:52;16.40;;;11.07;;
65613;SDS011;52283;49.292;10.572;2023-05-16T09:21:20;14.27;;;10.30;;
65613;SDS011;52283;49.292;10.572;2023-05-16T09:23:47;14.07;;;9.95;;
65613;SDS011;52283;49.292;10.572;2023-05-16T09:26:16;15.95;;;11.10;;
65613;SDS011;52283;49.292;10.572;2023-05-16T09:28:44;15.70;;;10.00;;
65613;SDS011;52283;49.292;10.572;2023-05-16T09:31:20;17.15;;;11.82;;
65613;SDS011;52283;49.292;10.572;2023-05-16T09:33:47;16.90;;;11.35;;
65613;SDS011;52283;49.292;10.572;2023-05-16T09:36:14;14.98;;;11.02;;
65613;SDS011;52283;49.292;10.572;2023-05-16T09:38:41;15.52;;;11.10;;
65613;SDS011;52283;49.292;10.572;2023-05-16T09:41:08;18.65;;;11.30;;
65613;SDS011;52283;49.292;10.572;2023-05-16T09:43:38;16.15;;;10.77;;
65613;SDS011;52283;49.292;10.572;2023-05-16T09:46:07;15.35;;;11.45;;
65613;SDS011;52283;49.292;10.572;2023-05-16T09:48:33;14.90;;;11.48;;
65613;SDS011;52283;49.292;10.572;2023-05-16T09:51:00;17.05;;;11.75;;
65613;SDS011;52283;49.292;10.572;2023-05-16T09:53:30;18.25;;;11.77;;
65613;SDS011;52283;49.292;10.572;2023-05-16T09:56:02;15.50;;;11.13;;
65613;SDS011;52283;49.292;10.572;2023-05-16T09:58:29;16.52;;;11.57;;
65613;SDS011;52283;49.292;10.572;2023-05-16T10:00:57;16.50;;;12.23;;
65613;SDS011;52283;49.292;10.572;2023-05-16T10:03:24;16.27;;;12.00;;
65613;SDS011;52283;49.292;10.572;2023-05-16T10:05:51;16.35;;;10.95;;
65613;SDS011;52283;49.292;10.572;2023-05-16T10:08:19;15.07;;;10.88;;
65613;SDS011;52283;49.292;10.572;2023-05-16T10:10:46;14.95;;;11.35;;
65613;SDS011;52283;49.292;10.572;2023-05-16T10:13:15;15.63;;;11.25;;
65613;SDS011;52283;49.292;10.572;2023-05-16T10:15:43;16.77;;;11.85;;
65613;SDS011;52283;49.292;10.572;2023-05-16T10:18:12;19.40;;;11.32;;
65613;SDS011;52283;49.292;10.572;2023-05-16T10:20:42;13.90;;;9.98;;
65613;SDS011;52283;49.292;10.572;2023-05-16T10:23:11;13.50;;;9.93;;
65613;SDS011;52283;49.292;10.572;2023-05-16T10:25:41;13.50;;;10.02;;
65613;SDS011;52283;49.292;10.572;2023-05-16T10:28:10;14.23;;;10.07;;
65613;SDS011;52283;49.292;10.572;2023-05-16T10:30:39;13.25;;;9.18;;
65613;SDS011;52283;49.292;10.572;2023-05-16T10:33:08;14.00;;;9.80;;
65613;SDS011;52283;49.292;10.572;2023-05-16T10:35:38;15.20;;;9.45;;
65613;SDS011;52283;49.292;10.572;2023-05-16T10:38:05;15.60;;;8.70;;
65613;SDS011;52283;49.292;10.572;2023-05-16T10:40:33;12.43;;;9.40;;
65613;SDS011;52283;49.292;10.572;2023-05-16T10:43:01;14.27;;;9.27;;
65613;SDS011;52283;49.292;10.572;2023-05-16T10:45:29;10.18;;;8.23;;
65613;SDS011;52283;49.292;10.572;2023-05-16T10:47:56;9.82;;;7.88;;
65613;SDS011;52283;49.292;10.572;2023-05-16T10:50:30;12.35;;;8.05;;
65613;SDS011;52283;49.292;10.572;2023-05-16T10:53:21;10.77;;;7.85;;
65613;SDS011;52283;49.292;10.572;2023-05-16T10:55:49;10.35;;;7.60;;
65613;SDS011;52283;49.292;10.572;2023-05-16T10:58:38;10.13;;;7.70;;
65613;SDS011;52283;49.292;10.572;2023-05-16T11:01:20;11.07;;;7.85;;
65613;SDS011;52283;49.292;10.572;2023-05-16T11:04:04;9.43;;;7.53;;
65613;SDS011;52283;49.292;10.572;2023-05-16T11:06:32;9.23;;;7.32;;
65613;SDS011;52283;49.292;10.572;2023-05-16T11:09:05;7.30;;;6.47;;
65613;SDS011;52283;49.292;10.572;2023-05-16T11:11:37;7.32;;;6.05;;
65613;SDS011;52283;49.292;10.572;2023-05-16T11:14:04;8.90;;;5.95;;
65613;SDS011;52283;49.292;10.572;2023-05-16T11:16:31;7.47;;;5.80;;
65613;SDS011;52283;49.292;10.572;2023-05-16T11:19:03;7.68;;;6.63;;
65613;SDS011;52283;49.292;10.572;2023-05-16T11:24:37;7.72;;;6.03;;
65613;SDS011;52283;49.292;10.572;2023-05-16T11:27:04;6.32;;;5.63;;
65613;SDS011;52283;49.292;10.572;2023-05-16T11:29:31;7.20;;;4.43;;
65613;SDS011;52283;49.292;10.572;2023-05-16T11:31:59;6.38;;;5.28;;
65613;SDS011;52283;49.292;10.572;2023-05-16T11:34:27;6.97;;;4.90;;
65613;SDS011;52283;49.292;10.572;2023-05-16T11:36:54;6.18;;;5.07;;
65613;SDS011;52283;49.292;10.572;2023-05-16T11:39:21;5.50;;;4.90;;
65613;SDS011;52283;49.292;10.572;2023-05-16T11:41:50;6.70;;;5.38;;
65613;SDS011;52283;49.292;10.572;2023-05-16T11:44:18;7.28;;;4.95;;
65613;SDS011;52283;49.292;10.572;2023-05-16T11:46:44;5.57;;;4.60;;
65613;SDS011;52283;49.292;10.572;2023-05-16T11:49:11;5.50;;;4.47;;
65613;SDS011;52283;49.292;10.572;2023-05-16T11:51:38;4.50;;;3.92;;
65613;SDS011;52283;49.292;10.572;2023-05-16T11:54:05;6.32;;;4.47;;
65613;SDS011;52283;49.292;10.572;2023-05-16T11:56:32;5.28;;;4.20;;
65613;SDS011;52283;49.292;10.572;2023-05-16T11:59:02;4.93;;;4.50;;
65613;SDS011;52283;49.292;10.572;2023-05-16T12:01:32;5.60;;;4.30;;
65613;SDS011;52283;49.292;10.572;2023-05-16T12:03:59;4.88;;;4.38;;
65613;SDS011;52283;49.292;10.572;2023-05-16T12:06:26;6.72;;;4.93;;
65613;SDS011;52283;49.292;10.572;2023-05-16T12:08:53;5.22;;;4.63;;
65613;SDS011;52283;49.292;10.572;2023-05-16T12:11:21;6.32;;;4.95;;
65613;SDS011;52283;49.292;10.572;2023-05-16T12:13:48;10.30;;;5.65;;
65613;SDS011;52283;49.292;10.572;2023-05-16T12:16:16;5.75;;;4.80;;
65613;SDS011;52283;49.292;10.572;2023-05-16T12:18:43;6.60;;;5.82;;
65613;SDS011;52283;49.292;10.572;2023-05-16T12:21:10;12.50;;;5.40;;
65613;SDS011;52283;49.292;10.572;2023-05-16T12:23:37;7.75;;;4.82;;
65613;SDS011;52283;49.292;10.572;2023-05-16T12:26:04;6.50;;;4.45;;
65613;SDS011;52283;49.292;10.572;2023-05-16T12:28:32;7.97;;;4.50;;
65613;SDS011;52283;49.292;10.572;2023-05-16T12:30:59;7.28;;;4.47;;
65613;SDS011;52283;49.292;10.572;2023-05-16T12:33:27;7.00;;;5.03;;
65613;SDS011;52283;49.292;10.572;2023-05-16T12:35:54;8.65;;;4.95;;
65613;SDS011;52283;49.292;10.572;2023-05-16T12:38:20;4.60;;;3.90;;
65613;SDS011;52283;49.292;10.572;2023-05-16T12:40:50;8.35;;;5.03;;
65613;SDS011;52283;49.292;10.572;2023-05-16T12:43:23;6.68;;;4.88;;
65613;SDS011;52283;49.292;10.572;2023-05-16T12:45:50;6.63;;;4.18;;
65613;SDS011;52283;49.292;10.572;2023-05-16T12:48:17;7.13;;;4.60;;
65613;SDS011;52283;49.292;10.572;2023-05-16T12:50:45;6.78;;;3.65;;
65613;SDS011;52283;49.292;10.572;2023-05-16T12:53:13;5.38;;;4.55;;
65613;SDS011;52283;49.292;10.572;2023-05-16T12:55:40;5.25;;;4.20;;
65613;SDS011;52283;49.292;10.572;2023-05-16T12:58:07;5.25;;;4.43;;
65613;SDS011;52283;49.292;10.572;2023-05-16T13:00:34;6.22;;;4.18;;
65613;SDS011;52283;49.292;10.572;2023-05-16T13:03:01;5.10;;;4.05;;
65613;SDS011;52283;49.292;10.572;2023-05-16T13:05:28;4.82;;;3.90;;
65613;SDS011;52283;49.292;10.572;2023-05-16T13:07:56;8.30;;;4.25;;
65613;SDS011;52283;49.292;10.572;2023-05-16T13:10:22;5.35;;;4.50;;
65613;SDS011;52283;49.292;10.572;2023-05-16T13:12:49;6.63;;;5.63;;
65613;SDS011;52283;49.292;10.572;2023-05-16T13:15:16;11.13;;;5.45;;
65613;SDS011;52283;49.292;10.572;2023-05-16T13:17:43;6.60;;;4.57;;
65613;SDS011;52283;49.292;10.572;2023-05-16T13:20:09;6.57;;;4.45;;
65613;SDS011;52283;49.292;10.572;2023-05-16T13:22:38;10.55;;;5.00;;
65613;SDS011;52283;49.292;10.572;2023-05-16T13:25:07;8.20;;;5.18;;
65613;SDS011;52283;49.292;10.572;2023-05-16T13:27:34;5.20;;;4.68;;
65613;SDS011;52283;49.292;10.572;2023-05-16T13:30:02;6.72;;;4.60;;
65613;SDS011;52283;49.292;10.572;2023-05-16T13:32:29;5.35;;;4.35;;
65613;SDS011;52283;49.292;10.572;2023-05-16T13:34:55;7.68;;;5.07;;
65613;SDS011;52283;49.292;10.572;2023-05-16T13:37:22;4.70;;;4.03;;
65613;SDS011;52283;49.292;10.572;2023-05-16T13:39:49;4.07;;;3.53;;
65613;SDS011;52283;49.292;10.572;2023-05-16T13:42:17;4.95;;;3.72;;
65613;SDS011;52283;49.292;10.572;2023-05-16T13:44:44;6.65;;;4.47;;
65613;SDS011;52283;49.292;10.572;2023-05-16T13:47:10;4.70;;;3.92;;
65613;SDS011;52283;49.292;10.572;2023-05-16T13:49:37;5.10;;;3.45;;
65613;SDS011;52283;49.292;10.572;2023-05-16T13:52:04;4.68;;;3.25;;
65613;SDS011;52283;49.292;10.572;2023-05-16T13:54:31;4.15;;;3.28;;
65613;SDS011;52283;49.292;10.572;2023-05-16T13:56:57;5.38;;;3.70;;
65613;SDS011;52283;49.292;10.572;2023-05-16T13:59:26;8.35;;;3.75;;
65613;SDS011;52283;49.292;10.572;2023-05-16T14:01:53;6.15;;;3.33;;
65613;SDS011;52283;49.292;10.572;2023-05-16T14:04:20;4.55;;;2.88;;
65613;SDS011;52283;49.292;10.572;2023-05-16T14:06:46;5.05;;;2.53;;
65613;SDS011;52283;49.292;10.572;2023-05-16T14:09:13;7.63;;;3.17;;
65613;SDS011;52283;49.292;10.572;2023-05-16T14:11:40;5.45;;;3.03;;
65613;SDS011;52283;49.292;10.572;2023-05-16T14:14:07;2.72;;;2.25;;
65613;SDS011;52283;49.292;10.572;2023-05-16T14:16:35;5.10;;;2.92;;
65613;SDS011;52283;49.292;10.572;2023-05-16T14:19:01;3.55;;;2.30;;
65613;SDS011;52283;49.292;10.572;2023-05-16T14:21:28;5.57;;;2.55;;
65613;SDS011;52283;49.292;10.572;2023-05-16T14:23:54;2.90;;;2.50;;
65613;SDS011;52283;49.292;10.572;2023-05-16T14:26:21;2.88;;;2.28;;